KFTN

Carrizo Springs

Carrizo Springs, Texas, USA
METAR KFTN 201010Z AUTO 08005KT 10SM CLR 03/M00 A3036 RMK A01
Observed Flight Rules
Jan-20 @ 10:10 UTC (47 minutes ago) Visual Flight Rules
Wind Visibility Clouds
80° at 5 knots 10 miles
  • Clear skies
Temperatures Readings
Current 3°C / 37°F
Dewpoint 0°C / 32°F
Humidity 81%
Altimeter 30.36" Hg
Pressure 1028.12 hPa
Elevation 236
METAR KFTN 201010Z AUTO 08005KT 10SM CLR 03/M00 A3036 RMK A01
Observed Flight Rules
Jan-20 @ 10:10 UTC
(47 minutes ago)
VFR
Wind Visibility
80° at 5 knots 10 miles
Clouds
  • Clear skies
Temperature Dewpoint
3°C / 37°F 0°C / 32°F
Humidity Altimeter Pressure
81% 30.36" Hg 1028.12 hPa